Time;durP1;ratioP1;P1;durP2;ratioP2;P2;SDS_P1;SDS_P2;PMS_P1;PMS_P2;Temp;Humidity;BMP_temperature;BMP_pressure;BME280_temperature;BME280_humidity;BME280_pressure;Samples;Min_cycle;Max_cycle;Signal;HPM_P1;HPM_P2
2022/03/10 00:00:34;;;;;;;1999.90;999.90;;;;;;;3.59;57.40;102373.25;15414321;28;20062;-61
2022/03/10 00:08:06;;;;;;;1999.90;999.90;;;;;;;3.45;57.62;102369.97;15414780;28;20054;-59
2022/03/10 00:15:39;;;;;;;1999.90;999.90;;;;;;;3.43;57.89;102369.34;15417450;28;20113;-62
2022/03/10 00:23:13;;;;;;;1999.90;999.90;;;;;;;3.23;58.79;102383.59;15433382;28;20113;-59
2022/03/10 00:30:46;;;;;;;1999.90;999.90;;;;;;;3.21;58.70;102387.66;15415001;28;20412;-61
2022/03/10 00:38:19;;;;;;;1999.90;999.90;;;;;;;3.23;58.79;102400.16;15394981;28;20464;-60
2022/03/10 00:45:53;;;;;;;1999.90;999.90;;;;;;;3.24;59.22;102399.06;15414341;28;20148;-61
2022/03/10 00:53:25;;;;;;;1999.90;999.90;;;;;;;3.17;58.70;102396.41;15488178;23;20043;-62
2022/03/10 01:00:59;;;;;;;1999.90;999.90;;;;;;;3.14;59.20;102401.59;15484125;28;20050;-63
2022/03/10 01:08:31;;;;;;;1999.90;999.90;;;;;;;3.05;59.08;102401.13;15493271;28;20078;-59
2022/03/10 01:16:05;;;;;;;1999.90;999.90;;;;;;;3.03;59.14;102410.72;15496605;28;20050;-62
2022/03/10 01:23:37;;;;;;;1999.90;999.90;;;;;;;2.83;59.70;102424.88;15499316;28;20108;-61
2022/03/10 01:31:10;;;;;;;1999.90;999.90;;;;;;;2.84;59.80;102410.00;15472734;28;20051;-62
2022/03/10 01:38:42;;;;;;;1999.90;999.90;;;;;;;2.83;59.81;102414.69;15490964;28;20118;-60
2022/03/10 01:46:16;;;;;;;1999.90;999.90;;;;;;;2.72;60.42;102412.78;15485330;28;20138;-60
2022/03/10 01:53:50;;;;;;;1999.90;999.90;;;;;;;2.28;62.47;102411.38;15490929;28;20427;-63
2022/03/10 02:01:24;;;;;;;1999.90;999.90;;;;;;;2.40;62.83;102416.91;15508232;28;20517;-64
2022/03/10 02:24:40;;;;;;;1999.90;999.90;;;;;;;2.59;62.62;102433.13;15491924;28;20054;-64
2022/03/10 02:32:14;;;;;;;1999.90;999.90;;;;;;;2.77;62.12;102429.44;15490562;28;20050;-62
2022/03/10 02:39:48;;;;;;;1999.90;999.90;;;;;;;2.37;63.49;102443.03;15493476;28;20085;-60
2022/03/10 02:47:20;;;;;;;;;;;;;;;2.19;64.69;102448.59;15492911;28;20125;-61
2022/03/10 02:54:54;;;;;;;1999.90;999.90;;;;;;;2.25;64.96;102453.19;15493035;28;19926;-62
2022/03/10 03:02:27;;;;;;;1999.90;999.90;;;;;;;2.48;64.56;102458.75;15490539;28;20093;-62
2022/03/10 03:10:01;;;;;;;;;;;;;;;2.34;64.73;102459.22;15491592;28;20704;-60
2022/03/10 03:17:34;;;;;;;;;;;;;;;2.25;65.18;102454.03;15487627;28;20379;-61
2022/03/10 03:25:08;;;;;;;1999.90;999.90;;;;;;;2.02;66.32;102457.56;15489255;28;20000;-63
2022/03/10 03:32:40;;;;;;;1999.90;999.90;;;;;;;1.97;66.85;102457.41;15481139;28;20404;-63
2022/03/10 03:40:14;;;;;;;1999.90;999.90;;;;;;;2.16;66.08;102469.22;15446880;28;20046;-62
2022/03/10 03:47:46;;;;;;;;;;;;;;;2.27;65.89;102479.41;15475987;28;20057;-62
2022/03/10 03:55:19;;;;;;;1999.90;999.90;;;;;;;2.20;66.31;102489.72;15474756;28;19922;-62
2022/03/10 04:02:53;;;;;;;1999.90;999.90;;;;;;;2.14;65.65;102487.88;15486569;28;20487;-62
2022/03/10 04:10:29;;;;;;;1999.90;999.90;;;;;;;2.12;65.65;102495.53;15485559;28;20046;-61
2022/03/10 04:18:10;;;;;;;1999.90;999.90;;;;;;;1.64;67.26;102496.38;15487226;28;20121;-64
2022/03/10 04:25:55;;;;;;;1999.90;999.90;;;;;;;1.92;66.48;102506.84;15488204;28;20060;-64
2022/03/10 04:33:27;;;;;;;1999.90;999.90;;;;;;;1.51;68.58;102504.78;15487721;28;20525;-63
2022/03/10 04:41:01;;;;;;;1999.90;999.90;;;;;;;1.52;68.48;102508.38;15493555;28;20034;-60
2022/03/10 04:48:33;;;;;;;;;;;;;;;1.66;68.37;102521.75;15457855;28;20042;-62
2022/03/10 04:56:07;;;;;;;1999.90;999.90;;;;;;;1.67;68.38;102517.13;15497355;28;20267;-63
2022/03/10 05:03:39;;;;;;;1999.90;999.90;;;;;;;1.71;68.42;102519.16;15496637;28;20246;-63
2022/03/10 05:11:12;;;;;;;1999.90;999.90;;;;;;;2.13;67.78;102516.50;15498120;28;20097;-61
2022/03/10 05:18:45;;;;;;;;;;;;;;;2.39;66.29;102515.28;15496792;28;20046;-63
2022/03/10 05:26:18;;;;;;;1999.90;999.90;;;;;;;2.37;65.22;102528.44;15478784;28;19921;-62
2022/03/10 05:33:50;;;;;;;;;;;;;;;2.11;66.42;102523.31;15495138;28;20050;-62
2022/03/10 05:41:25;;;;;;;1999.90;999.90;;;;;;;2.21;66.28;102524.44;15493017;28;20005;-62
2022/03/10 05:49:11;;;;;;;1999.90;999.90;;;;;;;2.28;65.78;102529.84;15457742;28;20074;-62
2022/03/10 05:56:50;;;;;;;1999.90;999.90;;;;;;;2.07;66.90;102531.19;15493878;28;20101;-62
2022/03/10 06:04:24;;;;;;;1999.90;999.90;;;;;;;2.06;67.24;102548.78;15490835;28;20054;-62
2022/03/10 06:11:58;;;;;;;1999.90;999.90;;;;;;;1.90;67.91;102542.03;15502486;28;20050;-65
2022/03/10 06:19:33;;;;;;;1999.90;999.90;;;;;;;2.09;67.66;102556.63;15482552;28;20101;-65
2022/03/10 06:27:13;;;;;;;1999.90;999.90;;;;;;;2.39;66.82;102561.28;15492529;28;20074;-63
2022/03/10 06:34:55;;;;;;;1999.90;999.90;;;;;;;2.67;66.45;102563.41;15493681;28;20053;-64
2022/03/10 06:42:30;;;;;;;1999.90;999.90;;;;;;;3.00;65.84;102574.75;15508613;28;20046;-63
2022/03/10 06:50:04;;;;;;;1999.90;999.90;;;;;;;3.32;65.46;102589.06;15504400;23;20058;-62
2022/03/10 06:57:38;;;;;;;1999.90;999.90;;;;;;;3.87;64.69;102604.44;15478682;28;20057;-61
2022/03/10 07:05:10;;;;;;;1999.90;999.90;;;;;;;4.91;60.24;102611.50;15475625;28;20507;-62
2022/03/10 07:12:44;;;;;;;1999.90;999.90;;;;;;;6.49;56.61;102613.88;15477708;28;20054;-62
2022/03/10 07:20:18;;;;;;;1999.90;999.90;;;;;;;6.73;55.81;102608.88;15478429;28;20034;-62
2022/03/10 07:27:51;;;;;;;1999.90;999.90;;;;;;;7.48;54.16;102618.16;15477735;28;20092;-62
2022/03/10 07:35:23;;;;;;;1999.90;999.90;;;;;;;7.48;53.43;102624.53;15476552;28;20054;-60
2022/03/10 07:42:57;;;;;;;1999.90;999.90;;;;;;;8.08;51.49;102631.63;15474943;28;20152;-61
2022/03/10 07:50:29;;;;;;;1999.90;999.90;;;;;;;8.53;51.61;102644.09;15453931;28;20050;-61
2022/03/10 07:58:02;;;;;;;1999.90;999.90;;;;;;;9.12;49.47;102637.28;15470283;28;20049;-62
2022/03/10 08:05:35;;;;;;;1999.90;999.90;;;;;;;9.50;48.92;102647.91;15474213;28;20042;-60
2022/03/10 08:13:08;;;;;;;1999.90;999.90;;;;;;;10.10;48.94;102656.44;15475383;28;20406;-61
2022/03/10 08:20:41;;;;;;;1999.90;999.90;;;;;;;9.87;49.31;102646.72;15490129;28;20419;-62
2022/03/10 08:28:14;;;;;;;1999.90;999.90;;;;;;;9.89;49.22;102649.22;15487443;28;20064;-62
2022/03/10 08:35:46;;;;;;;1999.90;999.90;;;;;;;11.16;48.05;102662.69;15489312;28;20080;-63
2022/03/10 08:43:28;;;;;;;1999.90;999.90;;;;;;;11.16;47.96;102657.94;15485373;28;20061;-61
2022/03/10 08:51:00;;;;;;;1999.90;999.90;;;;;;;10.40;49.95;102670.31;15484648;28;20483;-60
2022/03/10 08:58:34;;;;;;;1999.90;999.90;;;;;;;11.06;49.01;102657.16;15486434;28;20034;-62
2022/03/10 09:06:07;;;;;;;1999.90;999.90;;;;;;;11.89;48.69;102664.63;15485468;28;20109;-62
2022/03/10 09:13:43;;;;;;;1999.90;999.90;;;;;;;12.64;46.79;102674.13;15485320;28;20046;-62
2022/03/10 09:21:15;;;;;;;1999.90;999.90;;;;;;;13.33;45.41;102668.94;15484898;28;20332;-63
2022/03/10 09:28:49;;;;;;;1999.90;999.90;;;;;;;12.87;46.78;102672.41;15484290;28;20039;-64
2022/03/10 09:36:21;;;;;;;1999.90;999.90;;;;;;;14.18;43.63;102680.94;15483679;28;20101;-63
2022/03/10 09:43:55;;;;;;;1999.90;999.90;;;;;;;14.15;43.28;102679.56;15482711;28;20054;-62
2022/03/10 09:51:28;;;;;;;1999.90;999.90;;;;;;;14.37;43.57;102676.06;15483303;28;20078;-62
2022/03/10 09:59:01;;;;;;;1999.90;999.90;;;;;;;14.77;42.71;102677.22;15482506;28;20038;-63
2022/03/10 10:06:59;;;;;;;1999.90;999.90;;;;;;;15.47;41.41;102675.88;15482458;28;20064;-64
2022/03/10 10:14:38;;;;;;;1999.90;999.90;;;;;;;14.07;43.67;102671.91;15483306;28;20081;-63
2022/03/10 10:22:15;;;;;;;1999.90;999.90;;;;;;;15.82;40.97;102669.38;15480678;28;20052;-61
2022/03/10 10:29:50;;;;;;;1999.90;999.90;;;;;;;15.16;41.59;102672.97;15482907;28;20481;-55
2022/03/10 10:37:23;;;;;;;1999.90;999.90;;;;;;;15.47;41.12;102673.91;15479557;28;20352;-57
2022/03/10 10:44:58;;;;;;;1999.90;999.90;;;;;;;16.28;39.59;102684.22;15481593;28;20411;-57
2022/03/10 10:52:39;;;;;;;1999.90;999.90;;;;;;;14.52;43.24;102675.78;15481424;28;20137;-61
2022/03/10 11:00:14;;;;;;;1999.90;999.90;;;;;;;15.82;42.24;102669.38;15470679;28;20133;-57
2022/03/10 11:07:49;;;;;;;1999.90;999.90;;;;;;;14.60;42.44;102666.63;15481871;28;20398;-59
2022/03/10 11:15:23;;;;;;;1999.90;999.90;;;;;;;13.50;43.62;102669.22;15480380;28;20052;-58
2022/03/10 11:23:07;;;;;;;1999.90;999.90;;;;;;;12.40;46.81;102656.47;15480642;28;20116;-59
2022/03/10 11:30:40;;;;;;;;;;;;;;;11.90;47.78;102658.72;15480159;28;20267;-61
2022/03/10 11:38:14;;;;;;;1999.90;999.90;;;;;;;11.69;47.16;102663.66;15477125;28;20478;-58
2022/03/10 11:45:47;;;;;;;1999.90;999.90;;;;;;;11.59;47.20;102646.13;15461199;28;20054;-57
2022/03/10 11:53:20;;;;;;;1999.90;999.90;;;;;;;11.62;46.52;102649.16;15477387;28;20052;-59
2022/03/10 12:00:57;;;;;;;1999.90;999.90;;;;;;;11.76;46.06;102641.75;15477616;28;20500;-61
2022/03/10 12:08:31;;;;;;;1999.90;999.90;;;;;;;12.94;43.88;102642.03;15461498;28;20510;-61
2022/03/10 12:16:05;;;;;;;1999.90;999.90;;;;;;;14.66;40.24;102625.19;15480564;28;20125;-58
2022/03/10 12:23:51;;;;;;;1999.90;999.90;;;;;;;14.67;39.58;102624.88;15479663;28;20112;-60
2022/03/10 12:31:27;;;;;;;1999.90;999.90;;;;;;;16.19;36.89;102629.81;15476631;28;20042;-57
2022/03/10 12:39:01;;;;;;;1999.90;999.90;;;;;;;17.00;35.44;102633.84;15479041;28;20055;-57
2022/03/10 12:46:36;;;;;;;1999.90;999.90;;;;;;;16.20;35.78;102626.66;15477544;28;20050;-55
2022/03/10 12:54:10;;;;;;;1999.90;999.90;;;;;;;16.74;34.91;102624.53;15321197;23;20059;-65
2022/03/10 13:01:43;;;;;;;1999.90;999.90;;;;;;;16.09;36.58;102623.31;15324819;29;20101;-67
2022/03/10 13:09:21;;;;;;;;;;;;;;;19.35;31.65;102608.28;15317790;29;20043;-65
2022/03/10 13:16:54;;;;;;;1999.90;999.90;;;;;;;19.32;31.83;102607.81;15317237;29;19954;-64
2022/03/10 13:24:36;;;;;;;;;;;;;;;16.97;34.46;102611.94;15316130;29;20095;-65
2022/03/10 13:32:11;;;;;;;1999.90;999.90;;;;;;;17.13;33.66;102598.19;15315092;29;19962;-66
2022/03/10 13:39:44;;;;;;;1999.90;999.90;;;;;;;17.16;32.99;102594.69;15315967;29;20052;-67
2022/03/10 13:47:19;;;;;;;1999.90;999.90;;;;;;;13.34;39.89;102592.13;15314796;29;20051;-66
2022/03/10 13:54:53;;;;;;;1999.90;999.90;;;;;;;11.99;42.29;102586.19;15297568;29;20107;-65
2022/03/10 14:02:27;;;;;;;1999.90;999.90;;;;;;;11.61;42.84;102582.34;15314056;29;20058;-66
2022/03/10 14:09:59;;;;;;;;;;;;;;;11.22;43.50;102578.50;15332662;29;20598;-65
2022/03/10 14:17:42;;;;;;;1999.90;999.90;;;;;;;11.53;42.17;102578.22;15355068;29;19923;-67
2022/03/10 14:25:15;;;;;;;1999.90;999.90;;;;;;;11.25;43.00;102574.28;15316265;29;20035;-64
2022/03/10 14:32:48;;;;;;;1999.90;999.90;;;;;;;11.16;42.27;102573.28;15313756;29;20048;-66
2022/03/10 14:40:20;;;;;;;1999.90;999.90;;;;;;;10.70;42.75;102546.50;15314352;29;20044;-64
2022/03/10 14:47:56;;;;;;;1999.90;999.90;;;;;;;10.61;41.88;102552.97;15310389;29;20052;-64
2022/03/10 14:55:28;;;;;;;1999.90;999.90;;;;;;;10.60;42.07;102557.72;15312424;29;20051;-68
2022/03/10 15:03:05;;;;;;;1999.90;999.90;;;;;;;10.19;42.19;102557.09;15311792;29;20485;-65
2022/03/10 15:10:38;;;;;;;1999.90;999.90;;;;;;;10.36;41.41;102551.19;15310375;29;20055;-66
2022/03/10 15:18:13;;;;;;;1999.90;999.90;;;;;;;10.24;42.29;102553.47;15310450;29;20047;-64
2022/03/10 15:25:46;;;;;;;1999.90;999.90;;;;;;;10.17;41.35;102552.91;15309417;29;20314;-64
2022/03/10 15:33:20;;;;;;;1999.90;999.90;;;;;;;10.00;41.77;102561.63;15308953;29;20044;-65
2022/03/10 15:40:55;;;;;;;1999.90;999.90;;;;;;;9.94;41.50;102546.03;15293479;29;20147;-65
2022/03/10 15:48:29;;;;;;;1999.90;999.90;;;;;;;9.95;41.76;102542.13;15309403;29;20507;-61
2022/03/10 15:56:02;;;;;;;1999.90;999.90;;;;;;;9.80;41.28;102548.63;15309496;29;20560;-65
2022/03/10 16:03:35;;;;;;;1999.90;999.90;;;;;;;9.81;41.52;102533.53;15307382;29;20342;-62
2022/03/10 16:11:07;;;;;;;1999.90;999.90;;;;;;;9.51;41.44;102538.09;15309473;29;20119;-66
2022/03/10 16:18:43;;;;;;;1999.90;999.90;;;;;;;9.30;42.25;102544.81;15319736;29;20039;-63
2022/03/10 16:26:15;;;;;;;1999.90;999.90;;;;;;;9.33;42.21;102551.75;15337638;29;20061;-64
2022/03/10 16:33:48;;;;;;;1999.90;999.90;;;;;;;9.16;42.43;102540.91;15316373;28;20059;-65
2022/03/10 16:41:20;;;;;;;1999.90;999.90;;;;;;;9.03;42.17;102559.00;15329335;29;20043;-63
2022/03/10 16:48:54;;;;;;;1999.90;999.90;;;;;;;8.89;41.44;102558.72;15352880;29;20142;-63
2022/03/10 16:56:26;;;;;;;1999.90;999.90;;;;;;;8.62;41.55;102547.81;15328790;29;20079;-62
2022/03/10 17:04:02;;;;;;;1999.90;999.90;;;;;;;8.36;41.29;102546.94;15321813;28;20051;-61
2022/03/10 17:11:35;;;;;;;1999.90;999.90;;;;;;;8.31;40.98;102558.00;15316618;29;20520;-63
2022/03/10 17:19:08;;;;;;;1999.90;999.90;;;;;;;8.11;40.90;102567.09;15319897;29;20044;-63
2022/03/10 17:26:41;;;;;;;1999.90;999.90;;;;;;;8.01;41.16;102577.34;15313973;29;20047;-64
2022/03/10 17:34:16;;;;;;;;;;;;;;;8.00;40.45;102579.28;15316830;29;20047;-62
2022/03/10 17:41:48;;;;;;;1999.90;999.90;;;;;;;8.01;40.11;102577.34;15354198;29;19922;-65
2022/03/10 17:49:21;;;;;;;1999.90;999.90;;;;;;;7.82;39.69;102577.00;15325441;29;20055;-63
2022/03/10 17:56:53;;;;;;;;;;;;;;;7.63;38.91;102578.53;15352925;29;20609;-58
2022/03/10 18:04:28;;;;;;;1999.90;999.90;;;;;;;7.36;38.61;102573.91;15320469;29;19961;-60
2022/03/10 18:12:06;;;;;;;1999.90;999.90;;;;;;;7.24;39.04;102578.81;15315999;29;20047;-61
2022/03/10 18:19:43;;;;;;;1999.90;999.90;;;;;;;7.19;39.58;102582.41;15359639;29;20039;-62
2022/03/10 18:27:15;;;;;;;1999.90;999.90;;;;;;;6.85;40.71;102575.41;15347377;28;20501;-64
2022/03/10 18:34:48;;;;;;;1999.90;999.90;;;;;;;6.82;41.86;102582.31;15330375;29;20075;-63
2022/03/10 18:42:22;;;;;;;1999.90;999.90;;;;;;;6.44;41.85;102580.53;15318766;29;20039;-65
2022/03/10 18:49:55;;;;;;;1999.90;999.90;;;;;;;6.15;41.82;102579.94;15338241;28;20105;-66
2022/03/10 18:57:29;;;;;;;1999.90;999.90;;;;;;;6.02;41.02;102583.06;15313176;28;20513;-65
2022/03/10 19:05:02;;;;;;;1999.90;999.90;;;;;;;5.72;41.47;102589.00;15333188;28;20469;-64
2022/03/10 19:12:34;;;;;;;1999.90;999.90;;;;;;;5.74;40.15;102586.81;15321275;29;20052;-63
2022/03/10 19:20:09;;;;;;;1999.90;999.90;;;;;;;5.48;39.54;102585.59;15310208;29;20051;-64
2022/03/10 19:27:41;;;;;;;1999.90;999.90;;;;;;;5.67;39.49;102589.78;15273250;29;20413;-63
2022/03/10 19:35:16;;;;;;;1999.90;999.90;;;;;;;5.45;40.42;102586.94;15308170;29;20040;-64
2022/03/10 19:42:51;;;;;;;1999.90;999.90;;;;;;;5.44;40.01;102589.97;15294771;29;20142;-62
2022/03/10 19:50:26;;;;;;;1999.90;999.90;;;;;;;5.13;41.71;102586.72;15296308;29;20055;-63
2022/03/10 19:57:59;;;;;;;1999.90;999.90;;;;;;;5.40;41.13;102594.31;15251615;29;20063;-65
2022/03/10 20:05:32;;;;;;;1999.90;999.90;;;;;;;5.08;41.85;102589.38;15304609;29;20149;-64
2022/03/10 20:13:05;;;;;;;1999.90;999.90;;;;;;;4.84;42.22;102601.69;15312149;29;20066;-64
2022/03/10 20:20:38;;;;;;;1999.90;999.90;;;;;;;4.75;42.24;102595.72;15338729;29;20078;-64
2022/03/10 20:28:11;;;;;;;1999.90;999.90;;;;;;;4.80;42.21;102589.44;15354233;28;20130;-60
2022/03/10 20:35:45;;;;;;;1999.90;999.90;;;;;;;4.57;42.37;102594.00;15318500;29;20043;-64
2022/03/10 20:43:17;;;;;;;1999.90;999.90;;;;;;;4.42;42.16;102595.63;15309147;29;20147;-63
2022/03/10 20:50:52;;;;;;;1999.90;999.90;;;;;;;4.41;42.38;102605.00;15340159;29;20050;-59
2022/03/10 20:58:25;;;;;;;1999.90;999.90;;;;;;;4.34;41.96;102602.38;15323719;29;20524;-65
2022/03/10 21:05:59;;;;;;;1999.90;999.90;;;;;;;4.07;41.83;102591.06;15303934;29;20505;-64
2022/03/10 21:13:31;;;;;;;1999.90;999.90;;;;;;;3.98;42.36;102581.47;15307513;29;20138;-60
2022/03/10 21:21:05;;;;;;;1999.90;999.90;;;;;;;3.90;42.80;102585.44;15346946;28;20058;-62
2022/03/10 21:28:37;;;;;;;;;;;;;;;3.93;42.40;102581.34;15347738;29;20520;-62
2022/03/10 21:36:10;;;;;;;1999.90;999.90;;;;;;;3.74;42.09;102584.25;15371426;28;20163;-64
2022/03/10 21:43:42;;;;;;;;;;;;;;;3.81;42.21;102575.84;15342137;29;20509;-63
2022/03/10 21:51:17;;;;;;;1999.90;999.90;;;;;;;3.60;42.66;102571.78;15336334;28;19923;-62
2022/03/10 21:58:49;;;;;;;1999.90;999.90;;;;;;;3.61;42.45;102573.47;15334575;29;20043;-64
2022/03/10 22:06:22;;;;;;;1999.90;999.90;;;;;;;3.28;42.91;102570.47;15349216;29;20047;-63
2022/03/10 22:13:55;;;;;;;1999.90;999.90;;;;;;;3.31;42.73;102561.72;15350701;29;20459;-62
2022/03/10 22:21:29;;;;;;;1999.90;999.90;;;;;;;3.19;42.39;102565.31;15330580;28;20054;-64
2022/03/10 22:29:01;;;;;;;1999.90;999.90;;;;;;;3.09;43.05;102567.81;15345895;29;20460;-63
2022/03/10 22:36:34;;;;;;;1999.90;999.90;;;;;;;3.16;42.59;102570.47;15345325;28;20517;-64
2022/03/10 22:44:06;;;;;;;1999.90;999.90;;;;;;;2.71;43.35;102571.00;15316202;29;20058;-63
2022/03/10 22:59:38;;;;;;;1999.90;999.90;;;;;;;2.84;43.29;102570.78;15320464;29;20051;-63
2022/03/10 23:07:28;;;;;;;1999.90;999.90;;;;;;;2.50;44.19;102574.25;15332492;28;20054;-65
2022/03/10 23:15:00;;;;;;;1999.90;999.90;;;;;;;2.43;44.09;102577.13;15362743;29;20040;-60
2022/03/10 23:22:33;;;;;;;1999.90;999.90;;;;;;;2.54;43.61;102575.50;15337065;29;20306;-63
2022/03/10 23:30:07;;;;;;;1999.90;999.90;;;;;;;2.40;43.53;102574.84;15345411;29;20044;-63
2022/03/10 23:37:40;;;;;;;1999.90;999.90;;;;;;;2.43;43.49;102571.63;15326706;29;20461;-62
2022/03/10 23:45:15;;;;;;;1999.90;999.90;;;;;;;2.57;43.04;102572.25;15341770;28;20046;-60
2022/03/10 23:52:48;;;;;;;1999.90;999.90;;;;;;;2.17;43.94;102569.19;15316086;29;20039;-62
